Vitarte, Peru
Current Conditions -  °F | °C
As of 3:00 AM on Monday 26 Jan 2015 (Local Time) from SPIM Reporting Station
Few Clouds Few Clouds  
Wind Chill: 70°   Ceiling: Unl
Heat Index: 70°   Visibility: 6mi
Dew Point: 66°   Wind: 9mph
Humidity: 88%   Direction: 160°SSE
Pressure: 29.8"   Gusts: NA
Location:  12.04°S, 76.93°W
Report Text: SPIM 260800Z 16008KT 9999 FEW010 21/19 Q1009 NOSIG RMK PP000
Loading
Personal Weather Stations






























Interactive Weather Map New forecast layout! Learn more

10-Day Weather Forecast

Advertisements
Track Severe Weather on mobile